Time;durP1;ratioP1;P1;durP2;ratioP2;P2;SDS_P1;SDS_P2;PMS_P1;PMS_P2;Temp;Humidity;BMP_temperature;BMP_pressure;BME280_temperature;BME280_humidity;BME280_pressure;Samples;Min_cycle;Max_cycle;Signal;HPM_P1;HPM_P2
2023/12/10 00:02:27;;;;;;;55.72;19.95;;;;;;;;;;4973273;28;20513;-60
2023/12/10 00:05:14;;;;;;;60.28;21.67;;;;;;;;;;4976927;28;20572;-60
2023/12/10 00:08:08;;;;;;;50.85;19.98;;;;;;;;;;4977194;28;20046;-61
2023/12/10 00:10:55;;;;;;;50.25;18.52;;;;;;;;;;4977048;28;20054;-57
2023/12/10 00:13:49;;;;;;;60.55;22.95;;;;;;;;;;4979416;28;20046;-58
2023/12/10 00:16:36;;;;;;;48.17;16.17;;;;;;;;;;4972650;28;20517;-58
2023/12/10 00:19:10;;;;;;;57.85;21.58;;;;;;;;;;4981203;28;20081;-62
2023/12/10 00:21:51;;;;;;;57.03;18.63;;;;;;;;;;4952895;28;20050;-64
2023/12/10 00:24:18;;;;;;;59.80;23.10;;;;;;;;;;4955237;28;20185;-56
2023/12/10 00:26:52;;;;;;;60.65;22.52;;;;;;;;;;4954442;28;20062;-55
2023/12/10 00:29:19;;;;;;;66.75;24.23;;;;;;;;;;4955417;28;20062;-54
2023/12/10 00:31:47;;;;;;;;;;;;;;;;;;4957032;28;20783;-55
2023/12/10 00:34:21;;;;;;;63.58;22.50;;;;;;;;;;4958328;28;19965;-52
2023/12/10 00:36:49;;;;;;;64.90;20.85;;;;;;;;;;4951517;28;20066;-54
2023/12/10 00:39:16;;;;;;;49.00;18.60;;;;;;;;;;4958332;28;20046;-71
2023/12/10 00:41:50;;;;;;;53.92;19.02;;;;;;;;;;4954534;28;20499;-71
2023/12/10 00:44:18;;;;;;;64.82;22.42;;;;;;;;;;4956938;28;20087;-72
2023/12/10 00:46:51;;;;;;;63.28;23.65;;;;;;;;;;4954928;28;20067;-72
2023/12/10 00:49:18;;;;;;;65.97;23.17;;;;;;;;;;4957957;28;20047;-57
2023/12/10 00:51:46;;;;;;;61.03;25.10;;;;;;;;;;4958871;28;20059;-52
2023/12/10 00:54:19;;;;;;;61.03;23.10;;;;;;;;;;4958409;28;20074;-50
2023/12/10 00:56:46;;;;;;;68.50;23.58;;;;;;;;;;4961306;28;20055;-56
2023/12/10 00:59:21;;;;;;;65.25;22.95;;;;;;;;;;4960071;28;20137;-56
2023/12/10 01:01:48;;;;;;;63.35;21.55;;;;;;;;;;4959154;28;20479;-52
2023/12/10 01:04:15;;;;;;;62.72;23.05;;;;;;;;;;4958760;28;20058;-56
2023/12/10 01:06:50;;;;;;;61.90;19.40;;;;;;;;;;4958761;28;20395;-71
2023/12/10 01:09:18;;;;;;;65.82;24.02;;;;;;;;;;4961514;28;20071;-72
2023/12/10 01:11:45;;;;;;;62.63;20.45;;;;;;;;;;4961542;28;20063;-74
2023/12/10 01:14:19;;;;;;;64.65;22.95;;;;;;;;;;4964437;28;20090;-72
2023/12/10 01:16:48;;;;;;;65.55;24.00;;;;;;;;;;4958367;28;20055;-70
2023/12/10 01:19:16;;;;;;;69.97;24.15;;;;;;;;;;4965448;28;20049;-56
2023/12/10 01:21:56;;;;;;;53.65;17.17;;;;;;;;;;4963793;28;20137;-59
2023/12/10 01:24:30;;;;;;;63.17;22.85;;;;;;;;;;4963317;28;20726;-59
2023/12/10 01:26:58;;;;;;;66.38;21.88;;;;;;;;;;4964665;28;20486;-58
2023/12/10 01:29:25;;;;;;;61.05;22.73;;;;;;;;;;4957295;28;20069;-59
2023/12/10 01:31:59;;;;;;;67.50;24.90;;;;;;;;;;4958565;28;20054;-59
2023/12/10 01:34:26;;;;;;;;;;;;;;;;;;4964898;28;20099;-60
2023/12/10 01:36:54;;;;;;;56.97;22.25;;;;;;;;;;4960100;28;19932;-60
2023/12/10 01:39:30;;;;;;;46.50;18.23;;;;;;;;;;4960795;28;20059;-60
2023/12/10 01:41:58;;;;;;;57.88;20.75;;;;;;;;;;4960562;28;20055;-60
2023/12/10 01:44:32;;;;;;;53.53;20.05;;;;;;;;;;4961341;28;24185;-64
2023/12/10 01:46:59;;;;;;;53.90;16.02;;;;;;;;;;4962587;28;20073;-58
2023/12/10 01:49:33;;;;;;;60.78;22.42;;;;;;;;;;4961157;28;20291;-72
2023/12/10 01:52:00;;;;;;;;;;;;;;;;;;4961869;28;20479;-71
2023/12/10 01:54:34;;;;;;;51.40;20.95;;;;;;;;;;4963586;28;20015;-69
2023/12/10 01:57:02;;;;;;;35.72;15.35;;;;;;;;;;4960986;28;20067;-71
2023/12/10 01:59:34;;;;;;;55.45;21.95;;;;;;;;;;4960785;28;20055;-71
2023/12/10 02:02:08;;;;;;;43.08;16.25;;;;;;;;;;4964434;28;20055;-71
2023/12/10 02:04:35;;;;;;;42.20;16.58;;;;;;;;;;4966404;28;20118;-51
2023/12/10 02:07:09;;;;;;;30.80;11.95;;;;;;;;;;4961847;28;20054;-48
2023/12/10 02:09:36;;;;;;;47.40;19.20;;;;;;;;;;4959484;28;20051;-50
2023/12/10 02:12:04;;;;;;;32.47;12.60;;;;;;;;;;4957430;28;20067;-51
2023/12/10 02:14:39;;;;;;;34.10;12.77;;;;;;;;;;4962864;28;20109;-59
2023/12/10 02:17:06;;;;;;;44.88;17.55;;;;;;;;;;4958998;28;20078;-61
2023/12/10 02:19:35;;;;;;;51.85;19.65;;;;;;;;;;4968701;28;20498;-61
2023/12/10 02:22:17;;;;;;;42.42;16.40;;;;;;;;;;4986650;28;20046;-61
2023/12/10 02:25:04;;;;;;;51.45;19.00;;;;;;;;;;4977512;28;20082;-60
2023/12/10 02:27:38;;;;;;;46.50;16.60;;;;;;;;;;4982895;28;20089;-61
2023/12/10 02:30:06;;;;;;;40.15;14.48;;;;;;;;;;4978601;28;20047;-60
2023/12/10 02:32:41;;;;;;;47.00;19.10;;;;;;;;;;4983557;28;20085;-60
2023/12/10 02:35:08;;;;;;;51.10;19.50;;;;;;;;;;4982882;28;20229;-60
2023/12/10 02:37:35;;;;;;;49.70;20.23;;;;;;;;;;4978948;28;20059;-60
2023/12/10 02:40:10;;;;;;;40.38;13.77;;;;;;;;;;4979753;28;20054;-60
2023/12/10 02:42:38;;;;;;;45.28;16.98;;;;;;;;;;4976224;28;20065;-60
2023/12/10 02:45:05;;;;;;;43.60;18.52;;;;;;;;;;4973717;28;20077;-55
2023/12/10 02:47:39;;;;;;;37.67;14.70;;;;;;;;;;4976589;28;20061;-56
2023/12/10 02:50:06;;;;;;;;;;;;;;;;;;4975804;28;20046;-55
2023/12/10 02:52:40;;;;;;;49.35;18.55;;;;;;;;;;4975616;28;19926;-56
2023/12/10 02:55:11;;;;;;;46.00;17.50;;;;;;;;;;4973040;28;20057;-53
2023/12/10 02:57:38;;;;;;;30.92;12.55;;;;;;;;;;4975332;28;20051;-52
2023/12/10 03:00:14;;;;;;;39.47;15.52;;;;;;;;;;4981594;28;20059;-58
2023/12/10 03:02:41;;;;;;;44.97;17.92;;;;;;;;;;4972812;28;20517;-57
2023/12/10 03:05:15;;;;;;;48.05;18.63;;;;;;;;;;4980780;28;20054;-59
2023/12/10 03:07:42;;;;;;;38.30;13.15;;;;;;;;;;4982171;28;20457;-59
2023/12/10 03:10:16;;;;;;;42.15;17.20;;;;;;;;;;4984574;28;20050;-70
2023/12/10 03:12:43;;;;;;;28.55;11.27;;;;;;;;;;4983937;28;20053;-51
2023/12/10 03:15:11;;;;;;;40.53;15.68;;;;;;;;;;4984346;28;20061;-49
2023/12/10 03:17:44;;;;;;;33.15;13.57;;;;;;;;;;4984618;28;20450;-53
2023/12/10 03:20:12;;;;;;;;;;;;;;;;;;4979097;28;20158;-50
2023/12/10 03:22:53;;;;;;;38.83;15.77;;;;;;;;;;4987692;28;19921;-52
2023/12/10 03:25:20;;;;;;;57.70;15.80;;;;;;;;;;4985480;28;20319;-48
2023/12/10 03:27:54;;;;;;;47.30;18.52;;;;;;;;;;4980836;28;20544;-62
2023/12/10 03:30:22;;;;;;;;;;;;;;;;;;4984201;28;20054;-64
2023/12/10 03:32:49;;;;;;;40.80;15.57;;;;;;;;;;4980117;28;20278;-63
2023/12/10 03:35:23;;;;;;;44.60;17.75;;;;;;;;;;4984259;28;20700;-63
2023/12/10 03:37:51;;;;;;;39.50;17.88;;;;;;;;;;4985101;28;20109;-54
2023/12/10 03:40:24;;;;;;;38.28;14.10;;;;;;;;;;4979413;28;20060;-70
2023/12/10 03:42:51;;;;;;;40.63;16.80;;;;;;;;;;4980253;28;20113;-59
2023/12/10 03:45:19;;;;;;;39.63;16.92;;;;;;;;;;4996738;28;20055;-58
2023/12/10 03:47:54;;;;;;;40.65;16.27;;;;;;;;;;4980848;28;20424;-57
2023/12/10 03:50:21;;;;;;;44.53;15.88;;;;;;;;;;4982361;28;20081;-58
2023/12/10 03:52:55;;;;;;;48.78;18.17;;;;;;;;;;4983347;28;20058;-59
2023/12/10 03:55:22;;;;;;;41.55;16.80;;;;;;;;;;4981008;28;20062;-58
2023/12/10 03:57:50;;;;;;;47.42;17.17;;;;;;;;;;4982285;28;21682;-56
2023/12/10 04:00:24;;;;;;;44.92;17.27;;;;;;;;;;4981343;28;20122;-58
2023/12/10 04:02:52;;;;;;;32.95;13.60;;;;;;;;;;4980841;28;20046;-57
2023/12/10 04:05:20;;;;;;;40.78;17.02;;;;;;;;;;4979831;28;20140;-59
2023/12/10 04:07:54;;;;;;;43.30;18.90;;;;;;;;;;4980783;28;20046;-51
2023/12/10 04:10:21;;;;;;;45.30;18.92;;;;;;;;;;4978505;28;20346;-59
2023/12/10 04:12:55;;;;;;;46.20;19.30;;;;;;;;;;4977697;28;20062;-59
2023/12/10 04:15:23;;;;;;;;;;;;;;;;;;4973855;28;20073;-59
2023/12/10 04:17:50;;;;;;;57.28;21.55;;;;;;;;;;4976644;28;20377;-59
2023/12/10 04:20:45;;;;;;;50.60;21.75;;;;;;;;;;4979143;28;20528;-59
2023/12/10 04:23:19;;;;;;;51.83;22.88;;;;;;;;;;4979507;28;20066;-60
2023/12/10 04:25:53;;;;;;;50.88;20.38;;;;;;;;;;4982139;28;20050;-52
2023/12/10 04:28:21;;;;;;;52.63;21.10;;;;;;;;;;4987720;28;20487;-54
2023/12/10 04:30:48;;;;;;;48.42;20.85;;;;;;;;;;4979118;28;20073;-54
2023/12/10 04:33:29;;;;;;;56.95;18.20;;;;;;;;;;4974646;28;20093;-55
2023/12/10 04:35:56;;;;;;;48.38;20.45;;;;;;;;;;4980841;28;20050;-57
2023/12/10 04:38:37;;;;;;;55.42;22.85;;;;;;;;;;4981186;28;20058;-51
2023/12/10 04:41:04;;;;;;;45.95;22.05;;;;;;;;;;4979941;28;20053;-52
2023/12/10 04:43:38;;;;;;;48.33;21.00;;;;;;;;;;4981666;28;20061;-50
2023/12/10 04:46:12;;;;;;;54.22;22.60;;;;;;;;;;4984469;28;20070;-50
2023/12/10 04:48:39;;;;;;;44.95;19.80;;;;;;;;;;4984894;28;20050;-49
2023/12/10 04:51:07;;;;;;;;;;;;;;;;;;4985000;28;20520;-54
2023/12/10 04:53:41;;;;;;;55.92;21.42;;;;;;;;;;4986009;28;20440;-50
2023/12/10 04:56:09;;;;;;;;;;;;;;;;;;4988340;28;20152;-47
2023/12/10 04:58:36;;;;;;;49.50;19.00;;;;;;;;;;4981241;28;20000;-53
2023/12/10 05:01:09;;;;;;;49.33;17.73;;;;;;;;;;4984819;28;20117;-48
2023/12/10 05:03:37;;;;;;;;;;;;;;;;;;4983727;28;20413;-60
2023/12/10 05:06:10;;;;;;;57.97;22.02;;;;;;;;;;4982675;28;19941;-62
2023/12/10 05:08:38;;;;;;;53.55;18.48;;;;;;;;;;4983092;28;20163;-59
2023/12/10 05:11:05;;;;;;;56.83;22.15;;;;;;;;;;4981184;28;20051;-55
2023/12/10 05:13:39;;;;;;;57.05;22.75;;;;;;;;;;4978409;28;20050;-58
2023/12/10 05:16:06;;;;;;;55.67;22.35;;;;;;;;;;4981575;28;20140;-59
2023/12/10 05:18:40;;;;;;;51.17;21.77;;;;;;;;;;4986471;28;20117;-57
2023/12/10 05:21:14;;;;;;;59.10;23.73;;;;;;;;;;4984907;28;20054;-59
2023/12/10 05:23:48;;;;;;;54.67;20.40;;;;;;;;;;4984176;28;20068;-57
2023/12/10 05:26:16;;;;;;;58.92;24.35;;;;;;;;;;4988174;28;20777;-59
2023/12/10 05:28:43;;;;;;;;;;;;;;;;;;4981951;28;20105;-59
2023/12/10 05:31:18;;;;;;;53.53;18.25;;;;;;;;;;4980038;28;20009;-59
2023/12/10 05:33:45;;;;;;;55.35;21.88;;;;;;;;;;4976402;28;20494;-70
2023/12/10 05:36:19;;;;;;;53.78;18.95;;;;;;;;;;4978853;28;20062;-60
2023/12/10 05:38:47;;;;;;;50.00;18.63;;;;;;;;;;4984309;28;20180;-60
2023/12/10 05:41:21;;;;;;;57.92;20.48;;;;;;;;;;4980233;28;20066;-59
2023/12/10 05:43:55;;;;;;;41.80;15.15;;;;;;;;;;4979336;28;20104;-59
2023/12/10 05:46:22;;;;;;;51.85;18.85;;;;;;;;;;4980944;28;20757;-60
2023/12/10 05:48:57;;;;;;;45.05;16.60;;;;;;;;;;4975976;28;20054;-60
2023/12/10 05:51:24;;;;;;;48.55;17.23;;;;;;;;;;4976672;28;20069;-53
2023/12/10 05:53:52;;;;;;;46.17;19.13;;;;;;;;;;4981548;28;20493;-51
2023/12/10 05:56:25;;;;;;;45.92;18.20;;;;;;;;;;4977353;28;20108;-49
2023/12/10 05:58:52;;;;;;;49.08;18.30;;;;;;;;;;4978572;28;20085;-48
2023/12/10 06:01:27;;;;;;;54.10;19.60;;;;;;;;;;4974028;28;20158;-58
2023/12/10 06:03:54;;;;;;;52.83;19.52;;;;;;;;;;4983129;28;20155;-56
2023/12/10 06:06:21;;;;;;;54.08;20.70;;;;;;;;;;4977721;28;20077;-55
2023/12/10 06:08:55;;;;;;;53.35;20.67;;;;;;;;;;4979282;28;20057;-54
2023/12/10 06:11:22;;;;;;;47.70;16.73;;;;;;;;;;4979607;28;20117;-54
2023/12/10 06:13:56;;;;;;;49.88;20.40;;;;;;;;;;4978942;28;20053;-54
2023/12/10 06:16:24;;;;;;;52.88;20.92;;;;;;;;;;4976969;28;21232;-56
2023/12/10 06:18:51;;;;;;;56.17;20.38;;;;;;;;;;4979288;28;20042;-54
2023/12/10 06:21:32;;;;;;;57.00;19.77;;;;;;;;;;4978919;28;20070;-55
2023/12/10 06:23:59;;;;;;;48.95;19.45;;;;;;;;;;4976450;28;20368;-52
2023/12/10 06:26:33;;;;;;;49.25;21.15;;;;;;;;;;4973744;28;20063;-54
2023/12/10 06:29:00;;;;;;;47.92;19.90;;;;;;;;;;4979726;28;20439;-62
2023/12/10 06:31:28;;;;;;;48.55;19.40;;;;;;;;;;4976492;28;20050;-59
2023/12/10 06:34:01;;;;;;;47.70;18.50;;;;;;;;;;4976216;28;20061;-63
2023/12/10 06:36:29;;;;;;;51.45;19.73;;;;;;;;;;4978882;28;20108;-63
2023/12/10 06:39:04;;;;;;;46.85;19.10;;;;;;;;;;4978320;28;20054;-63
2023/12/10 06:41:31;;;;;;;;;;;;;;;;;;4980075;28;20485;-63
2023/12/10 06:43:58;;;;;;;48.08;17.75;;;;;;;;;;4979955;28;19930;-63
2023/12/10 06:46:32;;;;;;;49.95;18.88;;;;;;;;;;4972848;28;20055;-64
2023/12/10 06:49:00;;;;;;;;;;;;;;;;;;4978223;28;20055;-70
2023/12/10 06:51:34;;;;;;;46.95;18.23;;;;;;;;;;4978985;28;19944;-70
2023/12/10 06:54:02;;;;;;;47.35;18.67;;;;;;;;;;4977237;28;20490;-70
2023/12/10 06:56:39;;;;;;;45.97;18.42;;;;;;;;;;4983176;28;20053;-71
2023/12/10 06:59:07;;;;;;;49.70;18.25;;;;;;;;;;4978488;28;20066;-63
2023/12/10 07:01:35;;;;;;;48.58;19.35;;;;;;;;;;4980562;28;20133;-60
2023/12/10 07:04:09;;;;;;;51.40;19.17;;;;;;;;;;4980099;28;20141;-62
2023/12/10 07:06:37;;;;;;;;;;;;;;;;;;4979565;28;20065;-60
2023/12/10 07:09:12;;;;;;;42.35;16.45;;;;;;;;;;4981371;28;19922;-60
2023/12/10 07:11:39;;;;;;;33.20;12.35;;;;;;;;;;4976824;28;20047;-59
2023/12/10 07:14:06;;;;;;;40.20;16.20;;;;;;;;;;4983093;28;20058;-59
2023/12/10 07:16:40;;;;;;;39.78;14.90;;;;;;;;;;4972161;28;20588;-70
2023/12/10 07:19:07;;;;;;;41.58;15.82;;;;;;;;;;4981149;28;20081;-70
2023/12/10 07:21:48;;;;;;;27.25;11.88;;;;;;;;;;4971615;28;20499;-70
2023/12/10 07:24:23;;;;;;;27.75;12.70;;;;;;;;;;4976786;28;20060;-69
2023/12/10 07:26:56;;;;;;;36.63;15.30;;;;;;;;;;4979985;28;20062;-59
2023/12/10 07:29:24;;;;;;;32.63;14.70;;;;;;;;;;4980525;28;20478;-51
2023/12/10 07:31:51;;;;;;;35.97;14.43;;;;;;;;;;4980927;28;20069;-52
2023/12/10 07:34:25;;;;;;;32.05;14.15;;;;;;;;;;4977642;28;20132;-49
2023/12/10 07:36:53;;;;;;;35.47;14.05;;;;;;;;;;4975048;28;20066;-49
2023/12/10 07:39:20;;;;;;;29.23;13.40;;;;;;;;;;4979120;28;20050;-49
2023/12/10 07:41:54;;;;;;;31.83;14.23;;;;;;;;;;4974553;28;20510;-50
2023/12/10 07:44:23;;;;;;;34.58;12.25;;;;;;;;;;4974984;28;24057;-47
2023/12/10 07:46:58;;;;;;;34.72;15.35;;;;;;;;;;4974511;28;20257;-49
2023/12/10 07:49:25;;;;;;;;;;;;;;;;;;4980896;28;20062;-57
2023/12/10 07:51:52;;;;;;;32.33;14.43;;;;;;;;;;4973425;28;20025;-58
2023/12/10 07:54:26;;;;;;;34.80;14.20;;;;;;;;;;4978786;28;20164;-58
2023/12/10 07:56:54;;;;;;;32.55;14.10;;;;;;;;;;4971794;28;20466;-57
2023/12/10 07:59:29;;;;;;;34.45;15.32;;;;;;;;;;4976456;28;20091;-58
2023/12/10 08:01:56;;;;;;;30.38;14.15;;;;;;;;;;5005970;28;20046;-57
2023/12/10 08:04:23;;;;;;;36.90;14.02;;;;;;;;;;4974480;28;20779;-63
2023/12/10 08:06:57;;;;;;;38.65;13.00;;;;;;;;;;4974268;28;20198;-61
2023/12/10 08:09:24;;;;;;;37.13;14.55;;;;;;;;;;4976610;28;20849;-61
2023/12/10 08:11:59;;;;;;;35.72;15.27;;;;;;;;;;4971254;28;20118;-62
2023/12/10 08:14:28;;;;;;;32.08;14.25;;;;;;;;;;4972223;28;20050;-61
2023/12/10 08:16:55;;;;;;;39.05;15.60;;;;;;;;;;4968821;28;20124;-61
2023/12/10 08:19:29;;;;;;;36.05;15.38;;;;;;;;;;4976762;28;20493;-61
2023/12/10 08:22:03;;;;;;;30.38;14.60;;;;;;;;;;4974057;28;20086;-58
2023/12/10 08:24:44;;;;;;;32.45;14.90;;;;;;;;;;4976436;28;20058;-69
2023/12/10 08:27:11;;;;;;;35.50;14.40;;;;;;;;;;4971694;28;20094;-70
2023/12/10 08:29:46;;;;;;;37.88;15.18;;;;;;;;;;4975066;28;20478;-70
2023/12/10 08:32:13;;;;;;;34.72;14.48;;;;;;;;;;4972293;28;20082;-69
2023/12/10 08:34:40;;;;;;;35.03;15.65;;;;;;;;;;4972226;28;20255;-70
2023/12/10 08:37:14;;;;;;;42.83;16.45;;;;;;;;;;4972707;28;20064;-69
2023/12/10 08:39:49;;;;;;;31.65;14.50;;;;;;;;;;4969546;28;20117;-53
2023/12/10 08:42:17;;;;;;;37.08;16.55;;;;;;;;;;4973247;28;20061;-59
2023/12/10 08:44:44;;;;;;;36.40;15.48;;;;;;;;;;4971877;28;20410;-61
2023/12/10 08:47:18;;;;;;;39.67;16.23;;;;;;;;;;4966825;28;20117;-62
2023/12/10 08:49:46;;;;;;;32.65;15.25;;;;;;;;;;4973766;28;20465;-62
2023/12/10 08:52:20;;;;;;;36.95;15.68;;;;;;;;;;4974323;28;20056;-61
2023/12/10 08:54:47;;;;;;;33.63;16.45;;;;;;;;;;4974478;28;20089;-61
2023/12/10 08:57:14;;;;;;;39.67;17.55;;;;;;;;;;4969855;28;20093;-61
2023/12/10 08:59:50;;;;;;;36.13;17.20;;;;;;;;;;4972701;28;20424;-64
2023/12/10 09:02:18;;;;;;;40.83;16.23;;;;;;;;;;4975405;28;20050;-64
2023/12/10 09:04:46;;;;;;;34.90;15.02;;;;;;;;;;4971742;28;20066;-63
2023/12/10 09:07:21;;;;;;;37.70;17.48;;;;;;;;;;4967740;28;20207;-63
2023/12/10 09:09:49;;;;;;;35.17;15.98;;;;;;;;;;4973508;28;20061;-53
2023/12/10 09:12:28;;;;;;;35.47;15.90;;;;;;;;;;4974666;28;20060;-55
2023/12/10 09:15:02;;;;;;;35.70;15.82;;;;;;;;;;4973420;28;20050;-55
2023/12/10 09:17:30;;;;;;;42.53;17.80;;;;;;;;;;4972937;28;20502;-54
2023/12/10 09:20:10;;;;;;;34.10;16.00;;;;;;;;;;4972275;28;20065;-56
2023/12/10 09:22:44;;;;;;;38.22;18.10;;;;;;;;;;4977489;28;20064;-55
2023/12/10 09:25:18;;;;;;;36.17;14.02;;;;;;;;;;4969233;28;20054;-56
2023/12/10 09:27:46;;;;;;;41.13;16.90;;;;;;;;;;4981044;28;20100;-55
2023/12/10 09:30:14;;;;;;;36.88;16.77;;;;;;;;;;4969484;28;20617;-54
2023/12/10 09:32:47;;;;;;;37.15;15.93;;;;;;;;;;4976049;28;20046;-56
2023/12/10 09:35:14;;;;;;;36.35;17.25;;;;;;;;;;4976051;28;20084;-57
2023/12/10 09:37:48;;;;;;;41.65;18.17;;;;;;;;;;4978405;28;20603;-72
2023/12/10 09:40:35;;;;;;;37.33;16.83;;;;;;;;;;4981906;28;20104;-63
2023/12/10 09:43:29;;;;;;;37.08;15.55;;;;;;;;;;4980999;28;20066;-63
2023/12/10 09:46:16;;;;;;;40.75;18.88;;;;;;;;;;4978038;28;20057;-63
2023/12/10 09:49:11;;;;;;;41.70;18.77;;;;;;;;;;4972521;28;20468;-63
2023/12/10 09:51:58;;;;;;;35.47;13.77;;;;;;;;;;4976539;28;20059;-61
2023/12/10 09:54:56;;;;;;;41.70;17.85;;;;;;;;;;4977629;28;20328;-56
2023/12/10 09:57:43;;;;;;;42.33;18.23;;;;;;;;;;4977125;28;20062;-56
2023/12/10 10:00:36;;;;;;;43.30;18.17;;;;;;;;;;4977103;28;20082;-57
2023/12/10 10:03:24;;;;;;;40.10;17.42;;;;;;;;;;4974610;28;20472;-59
2023/12/10 10:06:17;;;;;;;39.03;17.90;;;;;;;;;;4973772;28;20594;-65
2023/12/10 10:09:06;;;;;;;31.20;13.82;;;;;;;;;;4977132;28;20053;-64
2023/12/10 10:12:04;;;;;;;38.55;19.13;;;;;;;;;;4975795;28;20519;-64
2023/12/10 10:14:56;;;;;;;38.35;16.75;;;;;;;;;;4976562;28;20060;-64
2023/12/10 10:17:49;;;;;;;37.95;15.73;;;;;;;;;;4977785;28;20437;-64
2023/12/10 10:20:39;;;;;;;34.40;15.50;;;;;;;;;;4980357;28;20062;-63
2023/12/10 10:23:39;;;;;;;37.55;17.00;;;;;;;;;;4979799;28;20051;-65
2023/12/10 10:26:26;;;;;;;42.15;18.80;;;;;;;;;;4978896;28;20520;-65
2023/12/10 10:29:25;;;;;;;38.25;17.15;;;;;;;;;;4975266;28;20066;-65
2023/12/10 10:32:14;;;;;;;35.50;15.63;;;;;;;;;;4972802;28;20046;-65
2023/12/10 10:35:05;;;;;;;42.40;17.75;;;;;;;;;;4973425;28;20061;-63
2023/12/10 10:37:52;;;;;;;37.00;16.85;;;;;;;;;;4979141;28;20104;-61
2023/12/10 10:40:45;;;;;;;39.75;16.00;;;;;;;;;;4970376;28;20081;-60
2023/12/10 10:43:32;;;;;;;30.75;14.30;;;;;;;;;;4967992;28;20141;-60
2023/12/10 10:46:26;;;;;;;39.03;17.48;;;;;;;;;;4974881;28;20102;-61
2023/12/10 10:49:20;;;;;;;41.72;17.77;;;;;;;;;;4976368;28;20117;-60
2023/12/10 10:52:09;;;;;;;37.10;16.55;;;;;;;;;;4976830;28;20057;-66
2023/12/10 10:55:03;;;;;;;42.03;17.85;;;;;;;;;;4971186;28;20073;-66
2023/12/10 10:57:57;;;;;;;35.75;17.20;;;;;;;;;;4973654;28;20066;-65
2023/12/10 11:00:45;;;;;;;38.53;16.67;;;;;;;;;;4976216;28;20065;-66
2023/12/10 11:03:38;;;;;;;39.45;16.73;;;;;;;;;;4976128;28;20509;-61
2023/12/10 11:06:26;;;;;;;40.83;18.65;;;;;;;;;;4976397;28;20489;-60
2023/12/10 11:09:20;;;;;;;42.95;18.60;;;;;;;;;;4974975;28;20108;-60
2023/12/10 11:12:07;;;;;;;27.67;10.38;;;;;;;;;;4975398;28;20105;-61
2023/12/10 11:15:02;;;;;;;40.47;18.23;;;;;;;;;;4970450;28;20058;-61
2023/12/10 11:17:57;;;;;;;38.85;17.15;;;;;;;;;;4968001;28;20048;-60
2023/12/10 11:21:02;;;;;;;42.72;18.48;;;;;;;;;;4979398;28;20131;-61
2023/12/10 11:23:57;;;;;;;40.88;18.30;;;;;;;;;;4975114;28;20513;-60
2023/12/10 11:26:50;;;;;;;41.28;18.35;;;;;;;;;;4972159;28;20063;-61
2023/12/10 11:29:38;;;;;;;43.47;17.77;;;;;;;;;;4974149;28;20755;-61
2023/12/10 11:32:31;;;;;;;43.17;19.30;;;;;;;;;;4973671;28;20514;-65
2023/12/10 11:35:25;;;;;;;41.50;18.77;;;;;;;;;;4971200;28;20054;-74
2023/12/10 11:37:53;;;;;;;39.88;18.45;;;;;;;;;;4976136;28;20413;-74
2023/12/10 11:40:27;;;;;;;44.42;18.27;;;;;;;;;;4975076;28;20152;-74
2023/12/10 11:43:01;;;;;;;44.05;18.92;;;;;;;;;;4979186;28;20592;-74
2023/12/10 11:45:36;;;;;;;41.50;19.40;;;;;;;;;;4972871;28;20533;-75
2023/12/10 11:48:09;;;;;;;40.10;17.23;;;;;;;;;;4972533;28;20061;-55
2023/12/10 11:50:46;;;;;;;43.25;19.75;;;;;;;;;;4969552;28;20417;-57
2023/12/10 11:53:16;;;;;;;48.28;20.42;;;;;;;;;;4974276;28;20062;-54
2023/12/10 11:55:52;;;;;;;47.22;20.15;;;;;;;;;;4971227;28;20058;-58
2023/12/10 11:58:26;;;;;;;45.85;18.70;;;;;;;;;;4969435;28;20057;-61
2023/12/10 12:01:01;;;;;;;42.75;19.48;;;;;;;;;;4971675;28;20054;-65
2023/12/10 12:03:31;;;;;;;42.13;17.95;;;;;;;;;;4973347;28;20054;-58
2023/12/10 12:05:58;;;;;;;42.95;20.08;;;;;;;;;;4962652;28;20050;-57
2023/12/10 12:08:33;;;;;;;44.53;19.50;;;;;;;;;;4969188;28;20696;-53
2023/12/10 12:11:00;;;;;;;48.97;18.85;;;;;;;;;;4973562;28;20046;-53
2023/12/10 12:13:35;;;;;;;36.90;16.92;;;;;;;;;;4971188;28;20054;-58
2023/12/10 12:16:02;;;;;;;;;;;;;;;;;;4967347;28;20061;-57
2023/12/10 12:18:29;;;;;;;42.83;17.75;;;;;;;;;;4965225;28;19940;-59
2023/12/10 12:21:17;;;;;;;43.10;18.38;;;;;;;;;;4973135;28;20065;-61
2023/12/10 12:23:51;;;;;;;40.38;18.15;;;;;;;;;;4958407;28;20179;-59
2023/12/10 12:26:25;;;;;;;42.72;18.17;;;;;;;;;;4964659;28;20226;-60
2023/12/10 12:28:53;;;;;;;43.97;19.80;;;;;;;;;;4961092;28;20088;-60
2023/12/10 12:31:28;;;;;;;43.10;18.27;;;;;;;;;;4971854;28;20309;-62
2023/12/10 12:33:55;;;;;;;;;;;;;;;;;;4970030;28;20493;-62
2023/12/10 12:36:22;;;;;;;43.38;18.67;;;;;;;;;;4973937;28;19946;-62
2023/12/10 12:38:56;;;;;;;40.45;17.83;;;;;;;;;;4967923;28;20749;-61
2023/12/10 12:41:23;;;;;;;44.30;18.83;;;;;;;;;;4973553;28;20121;-62
2023/12/10 12:43:57;;;;;;;48.10;19.15;;;;;;;;;;4969539;28;20050;-62
2023/12/10 12:46:25;;;;;;;41.47;17.75;;;;;;;;;;4974131;28;20362;-74
2023/12/10 12:48:52;;;;;;;41.30;17.35;;;;;;;;;;4971574;28;20055;-66
2023/12/10 12:51:25;;;;;;;42.22;17.73;;;;;;;;;;4969281;28;20056;-66
2023/12/10 12:53:53;;;;;;;;;;;;;;;;;;4970936;28;20665;-66
2023/12/10 12:56:40;;;;;;;39.63;16.70;;;;;;;;;;4971142;28;19930;-65
2023/12/10 12:59:08;;;;;;;38.75;17.17;;;;;;;;;;4969248;28;20051;-67
2023/12/10 13:01:43;;;;;;;35.35;14.70;;;;;;;;;;4967727;28;20054;-66
2023/12/10 13:04:10;;;;;;;40.05;15.10;;;;;;;;;;4972776;28;20050;-57
2023/12/10 13:06:44;;;;;;;;;;;;;;;;;;4969878;28;20054;-55
2023/12/10 13:09:19;;;;;;;35.35;16.42;;;;;;;;;;4972476;28;19926;-53
2023/12/10 13:11:48;;;;;;;36.38;16.17;;;;;;;;;;4977158;28;20508;-57
2023/12/10 13:14:15;;;;;;;33.60;15.30;;;;;;;;;;4973796;28;20552;-60
2023/12/10 13:16:49;;;;;;;38.38;16.45;;;;;;;;;;4977862;28;20061;-59
2023/12/10 13:19:18;;;;;;;38.53;17.27;;;;;;;;;;4977886;28;20104;-58
2023/12/10 13:21:58;;;;;;;35.25;14.98;;;;;;;;;;4976723;28;20108;-60
2023/12/10 13:24:25;;;;;;;32.90;15.57;;;;;;;;;;4979968;28;20069;-60
2023/12/10 13:27:01;;;;;;;29.23;14.85;;;;;;;;;;4972572;28;20054;-59
2023/12/10 13:29:28;;;;;;;32.65;13.98;;;;;;;;;;4981969;28;20407;-59
2023/12/10 13:31:55;;;;;;;31.10;14.00;;;;;;;;;;4978869;28;20069;-58
2023/12/10 13:34:30;;;;;;;26.17;11.82;;;;;;;;;;4981290;28;20058;-59
2023/12/10 13:36:57;;;;;;;33.78;13.85;;;;;;;;;;4980008;28;21004;-59
2023/12/10 13:39:31;;;;;;;31.50;14.98;;;;;;;;;;4983465;28;20513;-59
2023/12/10 13:41:58;;;;;;;31.33;14.00;;;;;;;;;;4977904;28;20058;-59
2023/12/10 13:44:32;;;;;;;32.35;13.90;;;;;;;;;;4977722;28;20506;-55
2023/12/10 13:46:59;;;;;;;28.88;13.85;;;;;;;;;;4977687;28;20058;-63
2023/12/10 13:49:27;;;;;;;34.03;14.45;;;;;;;;;;4978382;28;20069;-63
2023/12/10 13:52:01;;;;;;;30.33;14.20;;;;;;;;;;4974798;28;20069;-62
2023/12/10 13:54:28;;;;;;;;;;;;;;;;;;4979065;28;20058;-63
2023/12/10 13:57:02;;;;;;;30.27;12.70;;;;;;;;;;4972317;28;19929;-63
2023/12/10 13:59:30;;;;;;;31.73;14.40;;;;;;;;;;4975736;28;20144;-63
2023/12/10 14:02:03;;;;;;;27.30;12.48;;;;;;;;;;4976626;28;20536;-60
2023/12/10 14:04:30;;;;;;;29.42;13.88;;;;;;;;;;4975873;28;20057;-59
2023/12/10 14:06:58;;;;;;;25.48;12.20;;;;;;;;;;4973368;28;20600;-59
2023/12/10 14:09:32;;;;;;;26.13;12.60;;;;;;;;;;4971273;28;20140;-60
2023/12/10 14:12:00;;;;;;;24.75;13.85;;;;;;;;;;4971244;28;20054;-55
2023/12/10 14:14:34;;;;;;;31.83;14.70;;;;;;;;;;4973800;28;20078;-73
2023/12/10 14:17:02;;;;;;;31.05;13.82;;;;;;;;;;4968919;28;20117;-73
2023/12/10 14:19:29;;;;;;;32.17;14.77;;;;;;;;;;4970605;28;20075;-73
2023/12/10 14:22:09;;;;;;;31.60;12.93;;;;;;;;;;4966939;28;20105;-73
2023/12/10 14:24:36;;;;;;;29.10;13.02;;;;;;;;;;4971364;28;20141;-73
2023/12/10 14:27:11;;;;;;;27.70;11.35;;;;;;;;;;4969046;28;20495;-73
2023/12/10 14:29:38;;;;;;;32.83;14.77;;;;;;;;;;4971359;28;20575;-53
2023/12/10 14:32:05;;;;;;;28.88;13.40;;;;;;;;;;4971662;28;20120;-63
2023/12/10 14:34:39;;;;;;;27.48;13.77;;;;;;;;;;4971433;28;20611;-64
2023/12/10 14:37:07;;;;;;;28.88;14.27;;;;;;;;;;4972371;28;20611;-64
2023/12/10 14:39:41;;;;;;;30.77;15.02;;;;;;;;;;4969049;28;20243;-63
2023/12/10 14:42:09;;;;;;;31.02;14.45;;;;;;;;;;4970569;28;20062;-64
2023/12/10 14:44:43;;;;;;;28.45;14.02;;;;;;;;;;4969275;28;20125;-65
2023/12/10 14:47:10;;;;;;;30.13;13.43;;;;;;;;;;4971188;28;20414;-54
2023/12/10 14:49:37;;;;;;;27.55;12.90;;;;;;;;;;4972436;28;20050;-54
2023/12/10 14:52:13;;;;;;;28.60;14.73;;;;;;;;;;4970490;28;20949;-64
2023/12/10 14:54:40;;;;;;;26.27;13.70;;;;;;;;;;4972502;28;20059;-64
2023/12/10 14:57:15;;;;;;;31.00;13.80;;;;;;;;;;4972386;28;20600;-64
2023/12/10 14:59:42;;;;;;;;;;;;;;;;;;4968987;28;20516;-64
2023/12/10 15:02:09;;;;;;;32.63;14.65;;;;;;;;;;4972670;28;20539;-63